sensor_id;sensor_type;location;lat;lon;timestamp;P1;durP1;ratioP1;P2;durP2;ratioP2
1336;SDS011;662;48.814;9.318;2024-01-16T00:00:22;6.03;;;5.40;;
1336;SDS011;662;48.814;9.318;2024-01-16T00:02:48;5.67;;;4.77;;
1336;SDS011;662;48.814;9.318;2024-01-16T00:05:13;4.77;;;4.37;;
1336;SDS011;662;48.814;9.318;2024-01-16T00:07:39;4.70;;;4.17;;
1336;SDS011;662;48.814;9.318;2024-01-16T00:10:09;6.57;;;4.97;;
1336;SDS011;662;48.814;9.318;2024-01-16T00:12:35;5.90;;;4.80;;
1336;SDS011;662;48.814;9.318;2024-01-16T00:15:00;5.47;;;4.90;;
1336;SDS011;662;48.814;9.318;2024-01-16T00:17:26;5.13;;;4.63;;
1336;SDS011;662;48.814;9.318;2024-01-16T00:19:51;5.20;;;4.70;;
1336;SDS011;662;48.814;9.318;2024-01-16T00:22:17;6.13;;;5.27;;
1336;SDS011;662;48.814;9.318;2024-01-16T00:24:43;7.27;;;5.13;;
1336;SDS011;662;48.814;9.318;2024-01-16T00:27:08;6.83;;;5.20;;
1336;SDS011;662;48.814;9.318;2024-01-16T00:29:34;5.70;;;5.20;;
1336;SDS011;662;48.814;9.318;2024-01-16T00:31:59;5.43;;;4.93;;
1336;SDS011;662;48.814;9.318;2024-01-16T00:34:25;6.00;;;5.40;;
1336;SDS011;662;48.814;9.318;2024-01-16T00:36:51;6.53;;;4.63;;
1336;SDS011;662;48.814;9.318;2024-01-16T00:39:16;7.40;;;5.27;;
1336;SDS011;662;48.814;9.318;2024-01-16T00:41:42;6.97;;;5.00;;
1336;SDS011;662;48.814;9.318;2024-01-16T00:44:08;6.07;;;5.20;;
1336;SDS011;662;48.814;9.318;2024-01-16T00:46:33;6.53;;;5.47;;
1336;SDS011;662;48.814;9.318;2024-01-16T00:48:59;5.80;;;5.20;;
1336;SDS011;662;48.814;9.318;2024-01-16T00:51:24;7.60;;;5.40;;
1336;SDS011;662;48.814;9.318;2024-01-16T00:53:50;7.30;;;5.40;;
1336;SDS011;662;48.814;9.318;2024-01-16T00:56:16;5.90;;;5.07;;
1336;SDS011;662;48.814;9.318;2024-01-16T00:58:41;6.57;;;5.50;;
1336;SDS011;662;48.814;9.318;2024-01-16T01:01:07;5.60;;;4.93;;
1336;SDS011;662;48.814;9.318;2024-01-16T01:03:33;6.10;;;4.90;;
1336;SDS011;662;48.814;9.318;2024-01-16T01:05:59;6.80;;;5.63;;
1336;SDS011;662;48.814;9.318;2024-01-16T01:08:25;5.30;;;4.80;;
1336;SDS011;662;48.814;9.318;2024-01-16T01:10:51;6.50;;;5.33;;
1336;SDS011;662;48.814;9.318;2024-01-16T01:13:16;6.23;;;5.60;;
1336;SDS011;662;48.814;9.318;2024-01-16T01:15:42;7.13;;;5.27;;
1336;SDS011;662;48.814;9.318;2024-01-16T01:18:07;6.10;;;5.50;;
1336;SDS011;662;48.814;9.318;2024-01-16T01:20:33;6.20;;;5.03;;
1336;SDS011;662;48.814;9.318;2024-01-16T01:22:59;7.90;;;5.47;;
1336;SDS011;662;48.814;9.318;2024-01-16T01:25:25;7.93;;;5.37;;
1336;SDS011;662;48.814;9.318;2024-01-16T01:27:51;8.93;;;6.53;;
1336;SDS011;662;48.814;9.318;2024-01-16T01:30:17;5.87;;;4.80;;
1336;SDS011;662;48.814;9.318;2024-01-16T01:32:43;7.43;;;5.20;;
1336;SDS011;662;48.814;9.318;2024-01-16T01:35:09;6.17;;;5.40;;
1336;SDS011;662;48.814;9.318;2024-01-16T01:37:36;7.23;;;5.20;;
1336;SDS011;662;48.814;9.318;2024-01-16T01:40:03;6.03;;;5.43;;
1336;SDS011;662;48.814;9.318;2024-01-16T01:42:29;5.80;;;5.30;;
1336;SDS011;662;48.814;9.318;2024-01-16T01:44:55;6.67;;;5.10;;
1336;SDS011;662;48.814;9.318;2024-01-16T01:47:21;6.30;;;5.20;;
1336;SDS011;662;48.814;9.318;2024-01-16T01:49:46;5.73;;;5.13;;
1336;SDS011;662;48.814;9.318;2024-01-16T01:52:12;6.77;;;5.13;;
1336;SDS011;662;48.814;9.318;2024-01-16T01:54:38;6.57;;;5.97;;
1336;SDS011;662;48.814;9.318;2024-01-16T01:57:05;7.57;;;5.50;;
1336;SDS011;662;48.814;9.318;2024-01-16T01:59:33;5.73;;;4.80;;
1336;SDS011;662;48.814;9.318;2024-01-16T02:01:59;6.83;;;5.60;;
1336;SDS011;662;48.814;9.318;2024-01-16T02:04:25;6.07;;;5.23;;
1336;SDS011;662;48.814;9.318;2024-01-16T02:06:52;5.23;;;4.80;;
1336;SDS011;662;48.814;9.318;2024-01-16T02:09:19;6.00;;;5.20;;
1336;SDS011;662;48.814;9.318;2024-01-16T02:11:45;5.40;;;4.90;;
1336;SDS011;662;48.814;9.318;2024-01-16T02:14:11;6.33;;;5.73;;
1336;SDS011;662;48.814;9.318;2024-01-16T02:16:37;6.17;;;5.57;;
1336;SDS011;662;48.814;9.318;2024-01-16T02:19:04;9.47;;;5.37;;
1336;SDS011;662;48.814;9.318;2024-01-16T02:21:32;5.50;;;4.97;;
1336;SDS011;662;48.814;9.318;2024-01-16T02:24:13;6.40;;;5.47;;
1336;SDS011;662;48.814;9.318;2024-01-16T02:26:40;7.57;;;5.50;;
1336;SDS011;662;48.814;9.318;2024-01-16T02:29:06;6.10;;;5.50;;
1336;SDS011;662;48.814;9.318;2024-01-16T02:31:32;8.33;;;5.80;;
1336;SDS011;662;48.814;9.318;2024-01-16T02:33:58;8.63;;;5.50;;
1336;SDS011;662;48.814;9.318;2024-01-16T02:36:25;6.70;;;4.77;;
1336;SDS011;662;48.814;9.318;2024-01-16T02:38:51;5.47;;;4.90;;
1336;SDS011;662;48.814;9.318;2024-01-16T02:41:17;5.40;;;4.80;;
1336;SDS011;662;48.814;9.318;2024-01-16T02:43:43;5.47;;;4.77;;
1336;SDS011;662;48.814;9.318;2024-01-16T02:46:09;5.37;;;4.83;;
1336;SDS011;662;48.814;9.318;2024-01-16T02:48:35;6.87;;;5.10;;
1336;SDS011;662;48.814;9.318;2024-01-16T02:51:03;7.30;;;5.20;;
1336;SDS011;662;48.814;9.318;2024-01-16T02:53:30;8.07;;;5.20;;
1336;SDS011;662;48.814;9.318;2024-01-16T02:55:56;6.93;;;5.70;;
1336;SDS011;662;48.814;9.318;2024-01-16T02:58:23;7.37;;;5.37;;
1336;SDS011;662;48.814;9.318;2024-01-16T03:00:50;5.20;;;4.80;;
1336;SDS011;662;48.814;9.318;2024-01-16T03:03:16;7.93;;;5.57;;
1336;SDS011;662;48.814;9.318;2024-01-16T03:05:42;6.17;;;5.57;;
1336;SDS011;662;48.814;9.318;2024-01-16T03:08:07;8.40;;;5.50;;
1336;SDS011;662;48.814;9.318;2024-01-16T03:10:33;9.60;;;5.80;;
1336;SDS011;662;48.814;9.318;2024-01-16T03:12:58;6.27;;;5.50;;
1336;SDS011;662;48.814;9.318;2024-01-16T03:15:24;5.93;;;4.70;;
1336;SDS011;662;48.814;9.318;2024-01-16T03:17:50;8.30;;;5.60;;
1336;SDS011;662;48.814;9.318;2024-01-16T03:20:17;7.00;;;6.03;;
1336;SDS011;662;48.814;9.318;2024-01-16T03:22:43;7.23;;;5.17;;
1336;SDS011;662;48.814;9.318;2024-01-16T03:25:09;10.50;;;5.50;;
1336;SDS011;662;48.814;9.318;2024-01-16T03:27:37;6.10;;;4.77;;
1336;SDS011;662;48.814;9.318;2024-01-16T03:30:03;8.27;;;5.50;;
1336;SDS011;662;48.814;9.318;2024-01-16T03:32:29;6.87;;;5.33;;
1336;SDS011;662;48.814;9.318;2024-01-16T03:34:54;6.30;;;5.70;;
1336;SDS011;662;48.814;9.318;2024-01-16T03:37:20;7.67;;;6.50;;
1336;SDS011;662;48.814;9.318;2024-01-16T03:39:46;5.90;;;5.20;;
1336;SDS011;662;48.814;9.318;2024-01-16T03:42:12;6.03;;;5.43;;
1336;SDS011;662;48.814;9.318;2024-01-16T03:44:40;5.67;;;5.17;;
1336;SDS011;662;48.814;9.318;2024-01-16T03:47:06;7.83;;;5.97;;
1336;SDS011;662;48.814;9.318;2024-01-16T03:49:32;6.80;;;5.90;;
1336;SDS011;662;48.814;9.318;2024-01-16T03:51:58;6.50;;;5.47;;
1336;SDS011;662;48.814;9.318;2024-01-16T03:54:23;8.13;;;6.20;;
1336;SDS011;662;48.814;9.318;2024-01-16T03:56:49;6.73;;;5.60;;
1336;SDS011;662;48.814;9.318;2024-01-16T03:59:15;8.40;;;5.67;;
1336;SDS011;662;48.814;9.318;2024-01-16T04:01:41;9.77;;;6.50;;
1336;SDS011;662;48.814;9.318;2024-01-16T04:04:09;6.00;;;5.50;;
1336;SDS011;662;48.814;9.318;2024-01-16T04:06:35;6.10;;;5.33;;
1336;SDS011;662;48.814;9.318;2024-01-16T04:09:01;8.67;;;6.10;;
1336;SDS011;662;48.814;9.318;2024-01-16T04:11:27;6.80;;;6.03;;
1336;SDS011;662;48.814;9.318;2024-01-16T04:13:55;8.03;;;5.50;;
1336;SDS011;662;48.814;9.318;2024-01-16T04:16:21;6.53;;;5.50;;
1336;SDS011;662;48.814;9.318;2024-01-16T04:18:47;7.47;;;5.37;;
1336;SDS011;662;48.814;9.318;2024-01-16T04:21:13;6.53;;;5.67;;
1336;SDS011;662;48.814;9.318;2024-01-16T04:23:38;6.50;;;5.50;;
1336;SDS011;662;48.814;9.318;2024-01-16T04:26:06;7.53;;;5.33;;
1336;SDS011;662;48.814;9.318;2024-01-16T04:28:32;6.53;;;5.70;;
1336;SDS011;662;48.814;9.318;2024-01-16T04:30:59;6.53;;;5.20;;
1336;SDS011;662;48.814;9.318;2024-01-16T04:33:25;8.93;;;5.63;;
1336;SDS011;662;48.814;9.318;2024-01-16T04:35:51;7.13;;;5.40;;
1336;SDS011;662;48.814;9.318;2024-01-16T04:38:16;5.80;;;5.03;;
1336;SDS011;662;48.814;9.318;2024-01-16T04:40:42;6.67;;;6.00;;
1336;SDS011;662;48.814;9.318;2024-01-16T04:43:08;6.37;;;5.40;;
1336;SDS011;662;48.814;9.318;2024-01-16T04:45:33;6.40;;;5.73;;
1336;SDS011;662;48.814;9.318;2024-01-16T04:47:59;5.57;;;5.03;;
1336;SDS011;662;48.814;9.318;2024-01-16T04:50:24;5.50;;;4.67;;
1336;SDS011;662;48.814;9.318;2024-01-16T04:52:59;6.57;;;5.23;;
1336;SDS011;662;48.814;9.318;2024-01-16T04:55:26;8.43;;;4.67;;
1336;SDS011;662;48.814;9.318;2024-01-16T04:57:53;6.63;;;5.23;;
1336;SDS011;662;48.814;9.318;2024-01-16T05:00:20;10.97;;;4.77;;
1336;SDS011;662;48.814;9.318;2024-01-16T05:02:46;6.10;;;5.40;;
1336;SDS011;662;48.814;9.318;2024-01-16T05:05:12;10.40;;;6.97;;
1336;SDS011;662;48.814;9.318;2024-01-16T05:07:38;6.73;;;5.50;;
1336;SDS011;662;48.814;9.318;2024-01-16T05:10:04;6.87;;;6.07;;
1336;SDS011;662;48.814;9.318;2024-01-16T05:12:31;8.00;;;6.23;;
1336;SDS011;662;48.814;9.318;2024-01-16T05:14:56;6.63;;;5.80;;
1336;SDS011;662;48.814;9.318;2024-01-16T05:17:23;7.83;;;5.83;;
1336;SDS011;662;48.814;9.318;2024-01-16T05:19:48;6.10;;;5.50;;
1336;SDS011;662;48.814;9.318;2024-01-16T05:22:14;6.50;;;5.90;;
1336;SDS011;662;48.814;9.318;2024-01-16T05:24:40;8.53;;;5.60;;
1336;SDS011;662;48.814;9.318;2024-01-16T05:27:06;7.53;;;5.27;;
1336;SDS011;662;48.814;9.318;2024-01-16T05:29:31;7.07;;;6.13;;
1336;SDS011;662;48.814;9.318;2024-01-16T05:31:57;7.30;;;6.40;;
1336;SDS011;662;48.814;9.318;2024-01-16T05:34:23;9.20;;;7.70;;
1336;SDS011;662;48.814;9.318;2024-01-16T05:36:49;8.57;;;7.67;;
1336;SDS011;662;48.814;9.318;2024-01-16T05:39:14;8.20;;;6.63;;
1336;SDS011;662;48.814;9.318;2024-01-16T05:41:40;6.80;;;6.10;;
1336;SDS011;662;48.814;9.318;2024-01-16T05:44:06;6.63;;;5.70;;
1336;SDS011;662;48.814;9.318;2024-01-16T05:46:31;8.60;;;6.40;;
1336;SDS011;662;48.814;9.318;2024-01-16T05:48:57;8.83;;;5.90;;
1336;SDS011;662;48.814;9.318;2024-01-16T05:51:23;9.23;;;6.50;;
1336;SDS011;662;48.814;9.318;2024-01-16T05:53:50;7.97;;;6.50;;
1336;SDS011;662;48.814;9.318;2024-01-16T05:56:16;6.80;;;6.10;;
1336;SDS011;662;48.814;9.318;2024-01-16T05:58:41;10.50;;;7.07;;
1336;SDS011;662;48.814;9.318;2024-01-16T06:01:07;6.80;;;5.97;;
1336;SDS011;662;48.814;9.318;2024-01-16T06:03:33;8.93;;;6.80;;
1336;SDS011;662;48.814;9.318;2024-01-16T06:05:58;8.30;;;6.87;;
1336;SDS011;662;48.814;9.318;2024-01-16T06:08:24;8.37;;;6.67;;
1336;SDS011;662;48.814;9.318;2024-01-16T06:10:50;7.37;;;5.60;;
1336;SDS011;662;48.814;9.318;2024-01-16T06:13:17;6.60;;;5.83;;
1336;SDS011;662;48.814;9.318;2024-01-16T06:15:43;6.40;;;5.70;;
1336;SDS011;662;48.814;9.318;2024-01-16T06:18:09;8.00;;;5.87;;
1336;SDS011;662;48.814;9.318;2024-01-16T06:20:35;8.50;;;6.50;;
1336;SDS011;662;48.814;9.318;2024-01-16T06:23:00;10.80;;;6.83;;
1336;SDS011;662;48.814;9.318;2024-01-16T06:25:26;5.70;;;5.10;;
1336;SDS011;662;48.814;9.318;2024-01-16T06:27:52;6.23;;;5.20;;
1336;SDS011;662;48.814;9.318;2024-01-16T06:30:17;7.43;;;5.70;;
1336;SDS011;662;48.814;9.318;2024-01-16T06:32:43;8.40;;;5.40;;
1336;SDS011;662;48.814;9.318;2024-01-16T06:35:09;6.77;;;5.70;;
1336;SDS011;662;48.814;9.318;2024-01-16T06:37:37;6.03;;;5.47;;
1336;SDS011;662;48.814;9.318;2024-01-16T06:40:03;6.90;;;6.07;;
1336;SDS011;662;48.814;9.318;2024-01-16T06:42:29;7.70;;;6.10;;
1336;SDS011;662;48.814;9.318;2024-01-16T06:44:55;8.50;;;6.07;;
1336;SDS011;662;48.814;9.318;2024-01-16T06:47:20;7.63;;;5.40;;
1336;SDS011;662;48.814;9.318;2024-01-16T06:49:46;6.97;;;5.63;;
1336;SDS011;662;48.814;9.318;2024-01-16T06:52:12;7.23;;;5.63;;
1336;SDS011;662;48.814;9.318;2024-01-16T06:54:37;5.53;;;4.93;;
1336;SDS011;662;48.814;9.318;2024-01-16T06:57:03;8.37;;;4.97;;
1336;SDS011;662;48.814;9.318;2024-01-16T06:59:29;6.60;;;5.20;;
1336;SDS011;662;48.814;9.318;2024-01-16T07:01:55;7.73;;;5.70;;
1336;SDS011;662;48.814;9.318;2024-01-16T07:04:20;8.87;;;6.87;;
1336;SDS011;662;48.814;9.318;2024-01-16T07:06:46;12.00;;;6.63;;
1336;SDS011;662;48.814;9.318;2024-01-16T07:09:12;9.37;;;6.50;;
1336;SDS011;662;48.814;9.318;2024-01-16T07:11:38;7.03;;;6.40;;
1336;SDS011;662;48.814;9.318;2024-01-16T07:14:07;7.10;;;6.50;;
1336;SDS011;662;48.814;9.318;2024-01-16T07:16:36;8.33;;;6.63;;
1336;SDS011;662;48.814;9.318;2024-01-16T07:19:02;6.43;;;5.47;;
1336;SDS011;662;48.814;9.318;2024-01-16T07:21:28;6.07;;;5.57;;
1336;SDS011;662;48.814;9.318;2024-01-16T07:23:54;9.43;;;7.13;;
1336;SDS011;662;48.814;9.318;2024-01-16T07:26:20;9.10;;;7.13;;
1336;SDS011;662;48.814;9.318;2024-01-16T07:28:47;8.27;;;6.00;;
1336;SDS011;662;48.814;9.318;2024-01-16T07:31:13;7.40;;;5.23;;
1336;SDS011;662;48.814;9.318;2024-01-16T07:33:39;8.77;;;5.50;;
1336;SDS011;662;48.814;9.318;2024-01-16T07:36:06;9.63;;;6.23;;
1336;SDS011;662;48.814;9.318;2024-01-16T07:38:32;9.53;;;5.90;;
1336;SDS011;662;48.814;9.318;2024-01-16T07:40:58;8.57;;;5.47;;
1336;SDS011;662;48.814;9.318;2024-01-16T07:43:24;6.30;;;5.17;;
1336;SDS011;662;48.814;9.318;2024-01-16T07:45:50;7.90;;;6.10;;
1336;SDS011;662;48.814;9.318;2024-01-16T07:48:15;10.50;;;7.20;;
1336;SDS011;662;48.814;9.318;2024-01-16T07:50:41;9.80;;;5.80;;
1336;SDS011;662;48.814;9.318;2024-01-16T07:53:07;12.70;;;8.83;;
1336;SDS011;662;48.814;9.318;2024-01-16T07:55:32;9.43;;;7.10;;
1336;SDS011;662;48.814;9.318;2024-01-16T07:57:58;14.40;;;8.30;;
1336;SDS011;662;48.814;9.318;2024-01-16T08:00:23;32.30;;;14.67;;
1336;SDS011;662;48.814;9.318;2024-01-16T08:02:49;25.20;;;11.23;;
1336;SDS011;662;48.814;9.318;2024-01-16T08:05:14;12.60;;;6.60;;
1336;SDS011;662;48.814;9.318;2024-01-16T08:07:43;7.77;;;5.23;;
1336;SDS011;662;48.814;9.318;2024-01-16T08:10:09;10.30;;;5.53;;
1336;SDS011;662;48.814;9.318;2024-01-16T08:12:35;8.57;;;5.77;;
1336;SDS011;662;48.814;9.318;2024-01-16T08:15:02;5.70;;;4.70;;
1336;SDS011;662;48.814;9.318;2024-01-16T08:17:28;7.70;;;5.50;;
1336;SDS011;662;48.814;9.318;2024-01-16T08:19:54;8.33;;;5.40;;
1336;SDS011;662;48.814;9.318;2024-01-16T08:22:20;7.17;;;5.70;;
1336;SDS011;662;48.814;9.318;2024-01-16T08:24:45;8.40;;;6.10;;
1336;SDS011;662;48.814;9.318;2024-01-16T08:27:11;6.90;;;5.87;;
1336;SDS011;662;48.814;9.318;2024-01-16T08:29:37;6.00;;;5.43;;
1336;SDS011;662;48.814;9.318;2024-01-16T08:32:03;6.40;;;5.80;;
1336;SDS011;662;48.814;9.318;2024-01-16T08:34:29;8.00;;;5.30;;
1336;SDS011;662;48.814;9.318;2024-01-16T08:36:54;8.57;;;6.07;;
1336;SDS011;662;48.814;9.318;2024-01-16T08:39:22;6.67;;;5.50;;
1336;SDS011;662;48.814;9.318;2024-01-16T08:41:49;8.77;;;5.43;;
1336;SDS011;662;48.814;9.318;2024-01-16T08:44:17;7.83;;;5.50;;
1336;SDS011;662;48.814;9.318;2024-01-16T08:46:43;7.30;;;5.57;;
1336;SDS011;662;48.814;9.318;2024-01-16T08:49:08;6.90;;;5.87;;
1336;SDS011;662;48.814;9.318;2024-01-16T08:51:36;7.20;;;5.20;;
1336;SDS011;662;48.814;9.318;2024-01-16T08:54:02;6.07;;;5.10;;
1336;SDS011;662;48.814;9.318;2024-01-16T08:56:28;6.90;;;5.30;;
1336;SDS011;662;48.814;9.318;2024-01-16T08:58:53;7.53;;;5.03;;
1336;SDS011;662;48.814;9.318;2024-01-16T09:01:19;5.97;;;4.63;;
1336;SDS011;662;48.814;9.318;2024-01-16T09:03:45;4.83;;;4.33;;
1336;SDS011;662;48.814;9.318;2024-01-16T09:06:12;6.63;;;5.80;;
1336;SDS011;662;48.814;9.318;2024-01-16T09:08:38;5.03;;;4.60;;
1336;SDS011;662;48.814;9.318;2024-01-16T09:11:03;7.13;;;4.90;;
1336;SDS011;662;48.814;9.318;2024-01-16T09:13:29;9.63;;;4.93;;
1336;SDS011;662;48.814;9.318;2024-01-16T09:15:54;7.20;;;5.07;;
1336;SDS011;662;48.814;9.318;2024-01-16T09:18:20;8.40;;;5.20;;
1336;SDS011;662;48.814;9.318;2024-01-16T09:20:46;4.60;;;4.10;;
1336;SDS011;662;48.814;9.318;2024-01-16T09:23:12;5.60;;;4.70;;
1336;SDS011;662;48.814;9.318;2024-01-16T09:25:38;5.27;;;4.77;;
1336;SDS011;662;48.814;9.318;2024-01-16T09:28:03;5.50;;;4.40;;
1336;SDS011;662;48.814;9.318;2024-01-16T09:30:29;5.40;;;4.70;;
1336;SDS011;662;48.814;9.318;2024-01-16T09:32:54;5.97;;;5.37;;
1336;SDS011;662;48.814;9.318;2024-01-16T09:35:20;5.00;;;4.50;;
1336;SDS011;662;48.814;9.318;2024-01-16T09:37:47;4.60;;;4.20;;
1336;SDS011;662;48.814;9.318;2024-01-16T09:40:12;6.50;;;4.70;;
1336;SDS011;662;48.814;9.318;2024-01-16T09:42:38;6.53;;;4.60;;
1336;SDS011;662;48.814;9.318;2024-01-16T09:45:05;7.77;;;5.07;;
1336;SDS011;662;48.814;9.318;2024-01-16T09:47:34;6.27;;;4.03;;
1336;SDS011;662;48.814;9.318;2024-01-16T09:50:03;8.90;;;4.73;;
1336;SDS011;662;48.814;9.318;2024-01-16T09:52:29;5.13;;;4.60;;
1336;SDS011;662;48.814;9.318;2024-01-16T09:54:55;4.40;;;3.97;;
1336;SDS011;662;48.814;9.318;2024-01-16T09:57:20;5.63;;;5.00;;
1336;SDS011;662;48.814;9.318;2024-01-16T09:59:54;6.73;;;4.50;;
1336;SDS011;662;48.814;9.318;2024-01-16T10:02:21;5.40;;;4.70;;
1336;SDS011;662;48.814;9.318;2024-01-16T10:04:48;9.00;;;4.77;;
1336;SDS011;662;48.814;9.318;2024-01-16T10:07:14;4.90;;;4.50;;
1336;SDS011;662;48.814;9.318;2024-01-16T10:09:43;7.17;;;4.90;;
1336;SDS011;662;48.814;9.318;2024-01-16T10:12:08;4.63;;;4.17;;
1336;SDS011;662;48.814;9.318;2024-01-16T10:14:35;6.67;;;5.30;;
1336;SDS011;662;48.814;9.318;2024-01-16T10:17:02;4.60;;;4.20;;
1336;SDS011;662;48.814;9.318;2024-01-16T10:20:00;5.37;;;4.23;;
1336;SDS011;662;48.814;9.318;2024-01-16T10:22:29;5.63;;;4.13;;
1336;SDS011;662;48.814;9.318;2024-01-16T10:25:16;6.80;;;4.97;;
1336;SDS011;662;48.814;9.318;2024-01-16T10:27:46;4.77;;;4.10;;
1336;SDS011;662;48.814;9.318;2024-01-16T10:30:12;4.97;;;4.13;;
1336;SDS011;662;48.814;9.318;2024-01-16T10:32:38;5.70;;;4.43;;
1336;SDS011;662;48.814;9.318;2024-01-16T10:35:14;5.60;;;4.77;;
1336;SDS011;662;48.814;9.318;2024-01-16T10:37:43;8.13;;;5.67;;
1336;SDS011;662;48.814;9.318;2024-01-16T10:40:16;7.00;;;4.60;;
1336;SDS011;662;48.814;9.318;2024-01-16T10:42:43;10.33;;;5.27;;
1336;SDS011;662;48.814;9.318;2024-01-16T10:45:16;5.57;;;5.00;;
1336;SDS011;662;48.814;9.318;2024-01-16T10:47:43;5.03;;;4.50;;
1336;SDS011;662;48.814;9.318;2024-01-16T10:50:11;5.53;;;5.03;;
1336;SDS011;662;48.814;9.318;2024-01-16T10:52:38;8.40;;;4.73;;
1336;SDS011;662;48.814;9.318;2024-01-16T10:55:19;5.73;;;4.80;;
1336;SDS011;662;48.814;9.318;2024-01-16T10:57:51;6.30;;;4.67;;
1336;SDS011;662;48.814;9.318;2024-01-16T11:00:20;5.20;;;4.70;;
1336;SDS011;662;48.814;9.318;2024-01-16T11:02:51;8.37;;;4.77;;
1336;SDS011;662;48.814;9.318;2024-01-16T11:05:24;6.07;;;4.40;;
1336;SDS011;662;48.814;9.318;2024-01-16T11:07:53;6.63;;;4.33;;
1336;SDS011;662;48.814;9.318;2024-01-16T11:10:23;8.47;;;4.40;;
1336;SDS011;662;48.814;9.318;2024-01-16T11:12:50;7.10;;;4.93;;
1336;SDS011;662;48.814;9.318;2024-01-16T11:15:17;4.90;;;4.10;;
1336;SDS011;662;48.814;9.318;2024-01-16T11:17:44;5.43;;;4.30;;
1336;SDS011;662;48.814;9.318;2024-01-16T11:20:11;4.67;;;4.27;;
1336;SDS011;662;48.814;9.318;2024-01-16T11:22:39;4.60;;;4.20;;
1336;SDS011;662;48.814;9.318;2024-01-16T11:25:16;4.97;;;4.30;;
1336;SDS011;662;48.814;9.318;2024-01-16T11:27:43;6.83;;;4.33;;
1336;SDS011;662;48.814;9.318;2024-01-16T11:30:22;4.30;;;3.87;;
1336;SDS011;662;48.814;9.318;2024-01-16T11:32:55;5.77;;;4.57;;
1336;SDS011;662;48.814;9.318;2024-01-16T11:35:31;3.67;;;3.37;;
1336;SDS011;662;48.814;9.318;2024-01-16T11:38:08;6.30;;;4.30;;
1336;SDS011;662;48.814;9.318;2024-01-16T11:40:39;4.73;;;3.63;;
1336;SDS011;662;48.814;9.318;2024-01-16T11:46:02;4.30;;;3.40;;
1336;SDS011;662;48.814;9.318;2024-01-16T11:48:32;4.17;;;3.77;;
1336;SDS011;662;48.814;9.318;2024-01-16T11:50:58;6.53;;;3.50;;
1336;SDS011;662;48.814;9.318;2024-01-16T12:01:41;5.10;;;3.47;;
1336;SDS011;662;48.814;9.318;2024-01-16T12:04:09;4.83;;;3.60;;
1336;SDS011;662;48.814;9.318;2024-01-16T12:06:35;6.10;;;3.33;;
1336;SDS011;662;48.814;9.318;2024-01-16T12:11:43;5.30;;;3.47;;
1336;SDS011;662;48.814;9.318;2024-01-16T12:14:21;3.63;;;3.33;;
1336;SDS011;662;48.814;9.318;2024-01-16T12:16:46;4.33;;;3.87;;
1336;SDS011;662;48.814;9.318;2024-01-16T12:19:13;4.60;;;3.63;;
1336;SDS011;662;48.814;9.318;2024-01-16T12:21:39;2.50;;;2.30;;
1336;SDS011;662;48.814;9.318;2024-01-16T12:24:06;4.53;;;2.40;;
1336;SDS011;662;48.814;9.318;2024-01-16T12:26:31;10.33;;;3.60;;
1336;SDS011;662;48.814;9.318;2024-01-16T12:28:57;5.30;;;2.50;;
1336;SDS011;662;48.814;9.318;2024-01-16T12:31:23;2.73;;;2.53;;
1336;SDS011;662;48.814;9.318;2024-01-16T12:33:52;5.90;;;2.40;;
1336;SDS011;662;48.814;9.318;2024-01-16T12:36:18;4.30;;;2.40;;
1336;SDS011;662;48.814;9.318;2024-01-16T12:38:44;2.93;;;2.70;;
1336;SDS011;662;48.814;9.318;2024-01-16T12:41:10;4.97;;;3.30;;
1336;SDS011;662;48.814;9.318;2024-01-16T12:43:37;2.40;;;2.20;;
1336;SDS011;662;48.814;9.318;2024-01-16T12:46:03;4.17;;;2.30;;
1336;SDS011;662;48.814;9.318;2024-01-16T12:48:29;3.13;;;2.30;;
1336;SDS011;662;48.814;9.318;2024-01-16T12:51:04;2.87;;;2.23;;
1336;SDS011;662;48.814;9.318;2024-01-16T12:53:32;5.80;;;2.53;;
1336;SDS011;662;48.814;9.318;2024-01-16T12:56:04;5.40;;;3.27;;
1336;SDS011;662;48.814;9.318;2024-01-16T12:58:32;2.60;;;2.40;;
1336;SDS011;662;48.814;9.318;2024-01-16T13:01:04;5.00;;;3.07;;
1336;SDS011;662;48.814;9.318;2024-01-16T13:03:52;4.30;;;2.80;;
1336;SDS011;662;48.814;9.318;2024-01-16T13:06:18;6.07;;;3.50;;
1336;SDS011;662;48.814;9.318;2024-01-16T13:08:45;5.00;;;2.70;;
1336;SDS011;662;48.814;9.318;2024-01-16T13:11:15;3.57;;;2.50;;
1336;SDS011;662;48.814;9.318;2024-01-16T13:13:44;2.60;;;2.40;;
1336;SDS011;662;48.814;9.318;2024-01-16T13:16:14;5.57;;;3.40;;
1336;SDS011;662;48.814;9.318;2024-01-16T13:18:41;2.40;;;2.23;;
1336;SDS011;662;48.814;9.318;2024-01-16T13:21:07;4.23;;;2.60;;
1336;SDS011;662;48.814;9.318;2024-01-16T13:23:33;3.57;;;2.23;;
1336;SDS011;662;48.814;9.318;2024-01-16T13:26:00;2.80;;;2.10;;
1336;SDS011;662;48.814;9.318;2024-01-16T13:28:28;1.83;;;1.73;;
1336;SDS011;662;48.814;9.318;2024-01-16T13:30:54;3.47;;;1.97;;
1336;SDS011;662;48.814;9.318;2024-01-16T13:33:22;9.77;;;2.00;;
1336;SDS011;662;48.814;9.318;2024-01-16T13:35:52;3.77;;;2.60;;
1336;SDS011;662;48.814;9.318;2024-01-16T13:38:19;4.00;;;2.70;;
1336;SDS011;662;48.814;9.318;2024-01-16T13:40:46;2.33;;;2.13;;
1336;SDS011;662;48.814;9.318;2024-01-16T13:43:12;3.63;;;2.00;;
1336;SDS011;662;48.814;9.318;2024-01-16T13:45:38;5.60;;;3.07;;
1336;SDS011;662;48.814;9.318;2024-01-16T13:48:04;3.30;;;1.80;;
1336;SDS011;662;48.814;9.318;2024-01-16T13:50:31;5.87;;;2.40;;
1336;SDS011;662;48.814;9.318;2024-01-16T13:52:58;3.13;;;2.10;;
1336;SDS011;662;48.814;9.318;2024-01-16T13:55:24;5.80;;;2.27;;
1336;SDS011;662;48.814;9.318;2024-01-16T13:57:50;1.90;;;1.80;;
1336;SDS011;662;48.814;9.318;2024-01-16T14:00:16;3.83;;;1.93;;
1336;SDS011;662;48.814;9.318;2024-01-16T14:02:42;2.03;;;1.80;;
1336;SDS011;662;48.814;9.318;2024-01-16T14:05:16;2.57;;;2.37;;
1336;SDS011;662;48.814;9.318;2024-01-16T14:07:48;2.70;;;2.17;;
1336;SDS011;662;48.814;9.318;2024-01-16T14:10:16;2.10;;;2.00;;
1336;SDS011;662;48.814;9.318;2024-01-16T14:12:42;3.47;;;2.70;;
1336;SDS011;662;48.814;9.318;2024-01-16T14:15:10;1.80;;;1.70;;
1336;SDS011;662;48.814;9.318;2024-01-16T14:17:46;2.93;;;2.17;;
1336;SDS011;662;48.814;9.318;2024-01-16T14:20:23;2.60;;;2.40;;
1336;SDS011;662;48.814;9.318;2024-01-16T14:22:51;3.93;;;2.40;;
1336;SDS011;662;48.814;9.318;2024-01-16T14:25:17;2.33;;;2.20;;
1336;SDS011;662;48.814;9.318;2024-01-16T14:28:04;2.47;;;2.27;;
1336;SDS011;662;48.814;9.318;2024-01-16T14:30:31;2.53;;;2.30;;
1336;SDS011;662;48.814;9.318;2024-01-16T14:32:57;3.10;;;2.80;;
1336;SDS011;662;48.814;9.318;2024-01-16T14:35:23;3.93;;;3.03;;
1336;SDS011;662;48.814;9.318;2024-01-16T14:37:49;3.43;;;2.80;;
1336;SDS011;662;48.814;9.318;2024-01-16T14:40:15;2.63;;;2.43;;
1336;SDS011;662;48.814;9.318;2024-01-16T14:42:48;3.00;;;2.30;;
1336;SDS011;662;48.814;9.318;2024-01-16T14:45:18;2.47;;;2.27;;
1336;SDS011;662;48.814;9.318;2024-01-16T14:47:47;3.40;;;2.40;;
1336;SDS011;662;48.814;9.318;2024-01-16T14:50:14;3.37;;;2.73;;
1336;SDS011;662;48.814;9.318;2024-01-16T14:52:42;2.50;;;2.30;;
1336;SDS011;662;48.814;9.318;2024-01-16T14:55:09;5.20;;;2.40;;
1336;SDS011;662;48.814;9.318;2024-01-16T14:57:37;8.40;;;2.70;;
1336;SDS011;662;48.814;9.318;2024-01-16T15:02:48;3.10;;;2.57;;
1336;SDS011;662;48.814;9.318;2024-01-16T15:05:14;3.20;;;2.23;;
1336;SDS011;662;48.814;9.318;2024-01-16T15:07:41;4.37;;;3.27;;
1336;SDS011;662;48.814;9.318;2024-01-16T15:10:08;4.70;;;3.20;;
1336;SDS011;662;48.814;9.318;2024-01-16T15:12:34;6.50;;;4.83;;
1336;SDS011;662;48.814;9.318;2024-01-16T15:15:00;2.73;;;2.40;;
1336;SDS011;662;48.814;9.318;2024-01-16T15:17:28;5.33;;;3.17;;
1336;SDS011;662;48.814;9.318;2024-01-16T15:19:54;4.53;;;3.80;;
1336;SDS011;662;48.814;9.318;2024-01-16T15:22:20;5.53;;;4.60;;
1336;SDS011;662;48.814;9.318;2024-01-16T15:24:46;5.40;;;4.03;;
1336;SDS011;662;48.814;9.318;2024-01-16T15:27:12;6.30;;;3.70;;
1336;SDS011;662;48.814;9.318;2024-01-16T15:29:38;6.63;;;3.80;;
1336;SDS011;662;48.814;9.318;2024-01-16T15:32:04;5.43;;;4.47;;
1336;SDS011;662;48.814;9.318;2024-01-16T15:34:29;7.23;;;6.53;;
1336;SDS011;662;48.814;9.318;2024-01-16T15:36:55;9.77;;;8.60;;
1336;SDS011;662;48.814;9.318;2024-01-16T15:39:22;8.33;;;6.83;;
1336;SDS011;662;48.814;9.318;2024-01-16T15:41:48;9.80;;;6.40;;
1336;SDS011;662;48.814;9.318;2024-01-16T15:44:13;10.40;;;7.60;;